Time;durP1;ratioP1;P1;durP2;ratioP2;P2;SDS_P1;SDS_P2;PMS_P1;PMS_P2;Temp;Humidity;BMP_temperature;BMP_pressure;BME280_temperature;BME280_humidity;BME280_pressure;Samples;Min_cycle;Max_cycle;Signal;HPM_P1;HPM_P2
2022/08/16 00:00:10;;;;;;;4.00;3.60;;;27.20;51.80;28.00;99858.00;;;;5040856;28;20625;-46
2022/08/16 00:02:35;;;;;;;4.15;3.20;;;27.20;51.70;28.00;99870.00;;;;5024514;28;20240;-46
2022/08/16 00:05:02;;;;;;;3.55;3.25;;;27.20;51.70;28.00;99869.00;;;;5041085;28;20198;-46
2022/08/16 00:07:28;;;;;;;4.20;3.35;;;27.20;51.70;28.00;99868.00;;;;5025114;28;20197;-45
2022/08/16 00:09:54;;;;;;;4.07;3.58;;;27.20;51.70;28.00;99876.00;;;;5025346;28;20171;-47
2022/08/16 00:12:20;;;;;;;3.70;3.40;;;27.20;51.80;28.00;99884.00;;;;5025278;28;20209;-47
2022/08/16 00:14:45;;;;;;;3.50;3.22;;;27.10;51.80;27.80;99877.00;;;;5040804;28;20171;-45
2022/08/16 00:17:11;;;;;;;4.15;3.30;;;27.20;51.80;28.00;99880.00;;;;5028898;28;20191;-46
2022/08/16 00:19:37;;;;;;;3.60;3.30;;;27.10;51.80;28.00;99877.00;;;;5029367;28;20245;-46
2022/08/16 00:22:03;;;;;;;3.63;2.95;;;27.10;51.80;28.00;99887.00;;;;5029307;28;20213;-45
2022/08/16 00:24:29;;;;;;;4.13;3.67;;;27.10;51.80;27.90;99880.00;;;;5029153;28;20166;-46
2022/08/16 00:26:55;;;;;;;3.50;3.20;;;27.10;51.60;27.90;99885.00;;;;5028950;28;20187;-46
2022/08/16 00:29:21;;;;;;;3.80;3.50;;;27.10;51.80;27.90;99890.00;;;;5044408;28;20693;-47
2022/08/16 00:31:49;;;;;;;3.78;3.47;;;27.10;51.80;27.90;99897.00;;;;5028858;28;20167;-46
2022/08/16 00:34:16;;;;;;;3.80;3.50;;;27.10;52.00;27.90;99896.00;;;;5044377;28;20534;-45
2022/08/16 00:36:45;;;;;;;3.60;3.28;;;27.10;52.00;27.90;99905.00;;;;5027872;28;20732;-44
2022/08/16 00:39:12;;;;;;;3.90;3.60;;;27.00;52.00;27.90;99904.00;;;;5028785;28;20227;-47
2022/08/16 00:41:38;;;;;;;3.45;3.15;;;27.00;52.00;27.80;99893.00;;;;5029081;28;20194;-46
2022/08/16 00:44:09;;;;;;;3.53;3.28;;;27.00;52.00;27.80;99890.00;;;;5028949;28;20206;-46
2022/08/16 00:46:47;;;;;;;3.60;3.30;;;27.00;52.10;27.80;99891.00;;;;5029075;28;20203;-46
2022/08/16 00:49:13;;;;;;;3.70;3.33;;;27.00;52.10;27.80;99896.00;;;;5027388;28;20185;-46
2022/08/16 00:51:39;;;;;;;3.88;3.50;;;27.00;52.20;27.80;99907.00;;;;5044376;28;20270;-46
2022/08/16 00:54:05;;;;;;;3.75;3.40;;;27.00;52.90;27.80;99902.00;;;;5028720;28;20171;-46
2022/08/16 00:56:33;;;;;;;3.55;3.25;;;27.00;52.40;27.80;99906.00;;;;5029279;28;20554;-46
2022/08/16 00:58:58;;;;;;;3.67;3.40;;;27.00;52.30;27.50;99901.00;;;;5044113;28;20248;-47
2022/08/16 01:01:24;;;;;;;5.18;3.90;;;27.00;52.30;27.80;99901.00;;;;5027608;28;20187;-46
2022/08/16 01:03:51;;;;;;;3.88;3.38;;;27.00;52.50;27.70;99893.00;;;;5028670;28;20171;-47
2022/08/16 01:06:17;;;;;;;3.50;3.20;;;26.90;52.50;27.70;99894.00;;;;5044042;28;20163;-47
2022/08/16 01:08:45;;;;;;;3.90;3.60;;;26.90;52.50;27.70;99895.00;;;;5043375;28;20167;-45
2022/08/16 01:11:10;;;;;;;3.70;3.40;;;26.90;52.50;27.70;99907.00;;;;5044014;28;20642;-45
2022/08/16 01:13:36;;;;;;;3.83;3.20;;;26.80;52.50;27.70;99896.00;;;;5043703;28;20182;-46
2022/08/16 01:16:24;;;;;;;3.72;3.30;;;26.80;52.60;27.70;99900.00;;;;5043548;28;20525;-48
2022/08/16 01:19:29;;;;;;;3.70;3.40;;;26.80;52.60;27.60;99904.00;;;;5041000;28;20237;-46
2022/08/16 01:22:24;;;;;;;3.72;3.30;;;26.80;52.60;27.60;99886.00;;;;5022967;28;20340;-48
2022/08/16 01:25:12;;;;;;;3.35;3.13;;;26.80;52.70;27.60;99897.00;;;;5040493;28;20650;-48
2022/08/16 01:27:43;;;;;;;3.90;3.38;;;26.80;52.80;27.50;99898.00;;;;5025334;28;20201;-44
2022/08/16 01:30:16;;;;;;;3.90;3.50;;;26.70;52.80;27.50;99907.00;;;;5043311;28;20213;-45
2022/08/16 01:32:42;;;;;;;3.90;3.58;;;26.70;53.00;27.50;99903.00;;;;5043395;28;20175;-46
2022/08/16 01:35:23;;;;;;;3.70;3.40;;;26.60;53.10;27.50;99907.00;;;;5028848;28;20221;-45
2022/08/16 01:37:51;;;;;;;3.85;3.45;;;26.70;53.10;27.50;99894.00;;;;5041790;28;20810;-48
2022/08/16 01:40:19;;;;;;;3.53;3.20;;;26.60;53.10;27.50;99899.00;;;;5043488;28;20167;-47
2022/08/16 01:42:45;;;;;;;4.05;3.03;;;26.60;53.10;27.40;99894.00;;;;5028715;28;20167;-46
2022/08/16 01:45:11;;;;;;;4.20;3.25;;;26.60;52.90;27.40;99889.00;;;;5043535;28;20175;-47
2022/08/16 01:47:37;;;;;;;4.05;3.50;;;26.60;53.00;27.40;99876.00;;;;5028087;28;20968;-46
2022/08/16 01:50:04;;;;;;;3.50;3.13;;;26.60;53.00;27.40;99881.00;;;;5043767;28;20538;-46
2022/08/16 01:52:30;;;;;;;3.30;3.00;;;26.60;52.70;27.40;99883.00;;;;5028424;28;20258;-46
2022/08/16 01:54:57;;;;;;;3.10;2.80;;;26.60;52.70;27.40;99888.00;;;;5028447;28;20554;-46
2022/08/16 01:57:22;;;;;;;3.80;3.35;;;26.60;52.70;27.40;99822.00;;;;5043263;28;20235;-47
2022/08/16 01:59:48;;;;;;;3.58;3.28;;;26.60;52.70;27.40;99882.00;;;;5028081;28;20258;-46
2022/08/16 02:02:14;;;;;;;4.35;3.20;;;26.60;52.80;27.40;99882.00;;;;5028405;28;20274;-46
2022/08/16 02:04:40;;;;;;;3.50;3.20;;;26.60;53.00;27.40;99885.00;;;;5027808;28;20267;-45
2022/08/16 02:07:09;;;;;;;3.72;3.38;;;26.60;53.00;27.40;99893.00;;;;5027509;28;20533;-46
2022/08/16 02:09:36;;;;;;;3.40;3.10;;;26.50;53.00;27.40;99899.00;;;;5027603;28;20217;-47
2022/08/16 02:12:02;;;;;;;3.40;3.10;;;26.50;53.00;27.40;99901.00;;;;5043382;28;20171;-46
2022/08/16 02:14:28;;;;;;;3.28;3.00;;;26.50;53.00;27.40;99873.00;;;;5043069;28;20171;-46
2022/08/16 02:16:56;;;;;;;3.40;3.13;;;26.50;53.00;27.30;99894.00;;;;5043334;28;20234;-46
2022/08/16 02:19:23;;;;;;;3.45;3.15;;;26.50;53.10;27.30;99899.00;;;;5027667;28;20187;-47
2022/08/16 02:21:51;;;;;;;3.70;3.33;;;26.50;53.00;27.30;99896.00;;;;5042769;28;20179;-47
2022/08/16 02:24:17;;;;;;;3.20;2.90;;;26.50;52.90;27.30;99891.00;;;;5042670;28;20853;-46
2022/08/16 02:26:42;;;;;;;3.40;3.20;;;26.50;52.90;27.30;99890.00;;;;5026926;28;20721;-45
2022/08/16 02:29:08;;;;;;;3.60;3.30;;;26.50;52.80;27.30;99892.00;;;;5023933;28;20187;-46
2022/08/16 02:31:34;;;;;;;3.53;3.10;;;26.50;53.00;27.30;99890.00;;;;5025798;28;20193;-47
2022/08/16 02:34:00;;;;;;;3.35;3.05;;;26.40;53.00;27.30;99887.00;;;;5041682;28;20170;-47
2022/08/16 02:36:26;;;;;;;4.22;2.80;;;26.40;53.00;27.20;99891.00;;;;5026340;28;20175;-47
2022/08/16 02:38:52;;;;;;;5.72;3.30;;;26.40;53.00;27.20;99885.00;;;;5025804;28;20710;-45
2022/08/16 02:41:18;;;;;;;3.42;3.13;;;26.40;53.40;27.20;99862.00;;;;5026466;28;20203;-46
2022/08/16 02:43:43;;;;;;;3.70;3.40;;;26.30;53.10;27.20;99884.00;;;;5041661;28;20171;-47
2022/08/16 02:46:09;;;;;;;3.17;2.88;;;26.30;53.10;27.00;99886.00;;;;5026454;28;20705;-47
2022/08/16 02:48:37;;;;;;;3.05;2.80;;;26.30;53.60;27.20;99881.00;;;;5026075;28;20191;-46
2022/08/16 02:51:04;;;;;;;3.47;3.15;;;26.30;52.90;27.20;99885.00;;;;5026658;28;20194;-47
2022/08/16 02:53:30;;;;;;;3.10;2.80;;;26.30;53.00;27.20;99876.00;;;;5026118;28;20646;-47
2022/08/16 02:55:55;;;;;;;3.35;2.90;;;26.30;53.30;27.10;99888.00;;;;5026319;28;20183;-46
2022/08/16 02:58:22;;;;;;;2.90;2.70;;;26.30;53.00;27.10;99885.00;;;;5025852;28;20735;-46
2022/08/16 03:00:48;;;;;;;2.90;2.70;;;26.30;52.90;27.10;99894.00;;;;5026279;28;20253;-46
2022/08/16 03:03:14;;;;;;;3.55;3.00;;;26.30;52.70;27.10;99873.00;;;;5026543;28;20186;-45
2022/08/16 03:05:40;;;;;;;3.53;3.00;;;26.30;52.60;27.10;99884.00;;;;5025257;28;20681;-45
2022/08/16 03:08:08;;;;;;;3.03;2.83;;;26.30;52.80;27.10;99886.00;;;;5025956;28;20565;-46
2022/08/16 03:10:34;;;;;;;3.28;3.08;;;26.30;52.60;27.10;99884.00;;;;5025601;28;20182;-46
2022/08/16 03:13:00;;;;;;;3.38;3.08;;;26.30;52.50;27.10;99864.00;;;;5025458;28;20167;-46
2022/08/16 03:15:27;;;;;;;3.15;2.90;;;26.30;52.50;27.10;99878.00;;;;5039486;28;20237;-46
2022/08/16 03:17:52;;;;;;;4.38;2.75;;;26.30;52.70;27.10;99869.00;;;;5025186;28;20789;-45
2022/08/16 03:20:18;;;;;;;3.28;2.97;;;26.30;52.50;27.10;99874.00;;;;5025607;28;20175;-46
2022/08/16 03:22:44;;;;;;;3.30;3.00;;;26.30;52.70;27.10;99871.00;;;;5026129;28;20163;-45
2022/08/16 03:25:12;;;;;;;3.88;2.92;;;26.20;52.80;27.10;99882.00;;;;5026006;28;20175;-47
2022/08/16 03:27:39;;;;;;;2.95;2.70;;;26.30;52.90;27.00;99896.00;;;;5029112;28;20194;-46
2022/08/16 03:30:09;;;;;;;3.15;2.85;;;26.20;52.80;27.00;99888.00;;;;5027851;28;20198;-45
2022/08/16 03:32:35;;;;;;;3.08;2.78;;;26.20;52.50;27.00;99889.00;;;;5025475;28;20163;-46
2022/08/16 03:35:01;;;;;;;3.33;3.03;;;26.30;52.70;27.00;99901.00;;;;5025816;28;20245;-46
2022/08/16 03:37:27;;;;;;;4.32;2.90;;;26.30;52.60;27.00;99891.00;;;;5025094;28;20205;-46
2022/08/16 03:39:52;;;;;;;8.07;3.28;;;26.30;52.30;27.00;99899.00;;;;5025827;28;20198;-46
2022/08/16 03:42:18;;;;;;;7.38;3.45;;;26.30;52.50;26.60;99898.00;;;;4983091;28;20175;-48
2022/08/16 03:44:44;;;;;;;3.03;2.83;;;26.20;53.30;27.00;99903.00;;;;4991850;28;20246;-47
2022/08/16 03:47:10;;;;;;;3.53;2.90;;;26.20;52.80;27.00;99908.00;;;;5007396;28;20270;-46
2022/08/16 03:49:35;;;;;;;4.53;3.80;;;26.20;52.60;27.00;99907.00;;;;5025545;28;20691;-46
2022/08/16 03:52:01;;;;;;;4.15;3.70;;;26.20;52.80;27.00;99901.00;;;;5028875;28;20726;-48
2022/08/16 03:54:27;;;;;;;4.85;3.63;;;26.20;52.80;26.90;99897.00;;;;5029230;28;20170;-47
2022/08/16 03:56:53;;;;;;;3.28;2.97;;;26.20;52.60;26.90;99901.00;;;;5028143;28;20653;-47
2022/08/16 03:59:19;;;;;;;3.35;3.05;;;26.20;52.70;26.90;99899.00;;;;5025533;28;20198;-46
2022/08/16 04:01:44;;;;;;;3.30;3.00;;;26.10;53.00;26.90;99892.00;;;;5009134;28;20331;-46
2022/08/16 04:04:10;;;;;;;3.50;3.20;;;26.10;53.20;26.90;99892.00;;;;5009382;28;20604;-46
2022/08/16 04:06:36;;;;;;;3.17;2.88;;;26.10;52.90;26.90;99907.00;;;;5008399;28;20671;-45
2022/08/16 04:09:02;;;;;;;3.20;2.90;;;26.00;53.00;26.90;99905.00;;;;5009090;28;20233;-45
2022/08/16 04:11:27;;;;;;;4.07;3.00;;;26.00;53.00;26.80;99893.00;;;;5009211;28;20318;-46
2022/08/16 04:13:53;;;;;;;3.97;2.97;;;26.00;53.10;26.80;99903.00;;;;5008915;28;20262;-46
2022/08/16 04:16:19;;;;;;;3.38;3.10;;;26.00;53.00;26.80;99901.00;;;;5008753;28;20168;-47
2022/08/16 04:18:44;;;;;;;3.08;2.88;;;26.00;52.70;26.80;99901.00;;;;5008913;28;20270;-47
2022/08/16 04:21:10;;;;;;;5.82;3.33;;;26.00;52.70;26.80;99899.00;;;;5008337;28;20168;-45
2022/08/16 04:23:37;;;;;;;3.30;3.08;;;26.00;53.50;26.80;99911.00;;;;5009249;28;20172;-45
2022/08/16 04:26:06;;;;;;;3.42;3.13;;;26.00;52.80;26.80;99911.00;;;;5008395;28;20168;-46
2022/08/16 04:28:32;;;;;;;7.45;3.40;;;26.10;52.80;26.80;99923.00;;;;5008863;28;20781;-44
2022/08/16 04:30:58;;;;;;;4.22;3.20;;;26.00;52.90;26.80;99924.00;;;;5008867;28;20179;-45
2022/08/16 04:33:24;;;;;;;5.13;3.28;;;26.00;53.20;26.80;99924.00;;;;5009008;28;20175;-43
2022/08/16 04:35:51;;;;;;;3.47;3.17;;;26.00;53.20;26.70;99940.00;;;;5010780;28;20171;-44
2022/08/16 04:38:18;;;;;;;3.40;3.10;;;25.90;53.20;26.70;99935.00;;;;5028359;28;20206;-45
2022/08/16 04:40:46;;;;;;;3.83;3.30;;;25.90;52.80;26.70;99925.00;;;;5028514;28;20215;-48
2022/08/16 04:43:14;;;;;;;5.13;3.10;;;25.90;53.00;26.70;99924.00;;;;5019515;28;20565;-45
2022/08/16 04:45:41;;;;;;;4.97;3.03;;;25.90;52.90;26.70;99925.00;;;;5008206;28;20191;-46
2022/08/16 04:48:09;;;;;;;3.50;3.00;;;26.00;53.80;26.70;99929.00;;;;5023665;28;20192;-44
2022/08/16 04:50:35;;;;;;;3.45;3.15;;;25.90;53.30;26.70;99929.00;;;;5009106;28;20253;-46
2022/08/16 04:53:00;;;;;;;3.85;3.22;;;25.90;53.10;26.70;99929.00;;;;5008852;28;20581;-45
2022/08/16 04:55:27;;;;;;;6.03;3.53;;;25.90;53.00;26.70;99929.00;;;;5008661;28;20670;-46
2022/08/16 04:57:54;;;;;;;3.67;3.00;;;25.90;53.40;26.70;99931.00;;;;5023464;28;20250;-45
2022/08/16 05:00:33;;;;;;;3.03;2.83;;;25.90;53.40;26.60;99926.00;;;;5008442;28;20160;-47
2022/08/16 05:03:05;;;;;;;5.53;3.10;;;25.90;53.70;26.60;99929.00;;;;5008475;28;20160;-45
2022/08/16 05:05:32;;;;;;;3.20;3.00;;;25.90;53.10;26.60;99938.00;;;;5008128;28;20160;-47
2022/08/16 05:07:58;;;;;;;3.45;3.15;;;25.80;53.30;26.60;99945.00;;;;5023118;28;20736;-47
2022/08/16 05:10:24;;;;;;;3.30;2.90;;;25.80;53.60;26.60;99944.00;;;;5008504;28;20249;-45
2022/08/16 05:12:50;;;;;;;4.35;3.40;;;25.80;53.60;26.60;99948.00;;;;5008089;28;20230;-47
2022/08/16 05:15:16;;;;;;;3.35;3.05;;;25.80;53.50;26.50;99958.00;;;;5008297;28;20961;-44
2022/08/16 05:17:41;;;;;;;3.67;3.30;;;25.80;53.20;26.50;99963.00;;;;5007988;28;20612;-47
2022/08/16 05:20:08;;;;;;;3.85;3.10;;;25.80;53.40;26.50;99965.00;;;;5008251;28;20163;-45
2022/08/16 05:22:35;;;;;;;4.03;3.63;;;25.80;53.10;26.50;99959.00;;;;5007638;28;20655;-47
2022/08/16 05:25:03;;;;;;;3.38;3.05;;;25.80;53.00;26.50;99964.00;;;;5008274;28;20605;-46
2022/08/16 05:27:29;;;;;;;3.78;3.28;;;25.80;53.20;26.50;99966.00;;;;5007893;28;20270;-46
2022/08/16 05:29:55;;;;;;;3.80;3.40;;;25.80;52.90;26.50;99962.00;;;;5006598;28;20255;-47
2022/08/16 05:32:20;;;;;;;4.78;3.30;;;25.80;53.20;26.50;99965.00;;;;5008002;28;20650;-44
2022/08/16 05:34:46;;;;;;;3.33;3.03;;;25.80;53.20;26.50;99964.00;;;;5007760;28;20668;-47
2022/08/16 05:37:12;;;;;;;4.30;3.20;;;25.80;52.90;26.50;99959.00;;;;5007346;28;20198;-45
2022/08/16 05:39:38;;;;;;;3.28;3.00;;;25.70;53.30;26.50;99953.00;;;;5008740;28;20207;-45
2022/08/16 05:42:04;;;;;;;3.58;3.30;;;25.70;53.10;26.50;99958.00;;;;5007108;28;20184;-45
2022/08/16 05:44:29;;;;;;;3.85;3.47;;;25.70;54.00;26.50;99967.00;;;;5007642;28;20172;-45
2022/08/16 05:46:59;;;;;;;3.95;3.25;;;25.70;53.50;26.40;99966.00;;;;5006904;28;20666;-45
2022/08/16 05:49:27;;;;;;;3.50;3.20;;;25.70;53.40;26.40;99904.00;;;;5007505;28;20526;-45
2022/08/16 05:51:54;;;;;;;3.47;3.17;;;25.70;53.70;26.40;99970.00;;;;5007363;28;20176;-45
2022/08/16 05:54:20;;;;;;;4.22;3.00;;;25.70;54.00;26.40;99965.00;;;;5007197;28;20180;-46
2022/08/16 05:56:45;;;;;;;4.60;3.30;;;25.60;54.00;26.40;99968.00;;;;5022030;28;20885;-46
2022/08/16 05:59:12;;;;;;;3.58;2.90;;;25.60;54.30;26.40;99952.00;;;;5007179;28;20191;-46
2022/08/16 06:01:38;;;;;;;3.40;3.10;;;25.60;53.70;26.40;99975.00;;;;5022702;28;20176;-47
2022/08/16 06:04:06;;;;;;;3.83;3.38;;;25.60;54.10;26.40;99973.00;;;;5007504;28;20164;-46
2022/08/16 06:06:31;;;;;;;9.27;3.13;;;25.70;53.90;26.30;99969.00;;;;5006430;28;20171;-46
2022/08/16 06:08:57;;;;;;;4.20;3.40;;;25.60;53.90;26.30;99967.00;;;;5007160;28;20542;-45
2022/08/16 06:11:23;;;;;;;9.38;3.42;;;25.60;54.00;26.30;99965.00;;;;5007446;28;20977;-45
2022/08/16 06:13:48;;;;;;;6.13;3.38;;;25.70;54.00;26.30;99971.00;;;;5006646;28;20187;-45
2022/08/16 06:16:17;;;;;;;8.20;3.70;;;25.70;54.00;26.30;99967.00;;;;5007046;28;20191;-46
2022/08/16 06:18:45;;;;;;;4.03;3.47;;;25.70;54.40;26.30;99967.00;;;;5006694;28;20219;-43
2022/08/16 06:21:12;;;;;;;12.50;3.78;;;25.70;54.70;26.30;99969.00;;;;5006752;28;20168;-43
2022/08/16 06:23:37;;;;;;;12.63;4.07;;;25.70;55.10;26.30;99974.00;;;;5007081;28;20183;-44
2022/08/16 06:26:04;;;;;;;7.03;3.90;;;25.70;55.30;26.30;99978.00;;;;5006679;28;20183;-43
2022/08/16 06:28:30;;;;;;;5.97;3.20;;;25.70;55.30;26.30;99984.00;;;;5006689;28;20206;-42
2022/08/16 06:30:55;;;;;;;4.90;3.55;;;25.60;54.70;26.30;99982.00;;;;5005701;28;20179;-43
2022/08/16 06:33:21;;;;;;;4.65;3.38;;;25.60;54.80;26.30;99990.00;;;;5021866;28;20190;-42
2022/08/16 06:35:48;;;;;;;5.18;3.50;;;25.60;54.70;26.30;99992.00;;;;5006597;28;20188;-43
2022/08/16 06:38:14;;;;;;;6.25;3.40;;;25.70;54.70;26.30;99983.00;;;;5006573;28;20215;-43
2022/08/16 06:40:39;;;;;;;6.50;3.65;;;25.70;55.50;26.30;99998.00;;;;5006544;28;20955;-42
2022/08/16 06:43:05;;;;;;;4.32;3.30;;;25.60;55.40;26.30;99981.00;;;;5010817;28;20187;-43
2022/08/16 06:45:31;;;;;;;5.22;3.35;;;25.60;55.20;26.30;99995.00;;;;5010181;28;20282;-42
2022/08/16 06:47:57;;;;;;;4.60;3.33;;;25.60;55.50;26.30;99983.00;;;;5020395;28;20211;-44
2022/08/16 06:50:23;;;;;;;4.13;3.63;;;25.60;55.60;26.30;99988.00;;;;5017502;28;20282;-42
2022/08/16 06:52:49;;;;;;;5.75;3.08;;;25.60;55.50;26.30;99996.00;;;;5008082;28;20171;-41
2022/08/16 06:55:15;;;;;;;5.93;3.60;;;25.60;55.20;26.20;99987.00;;;;5012884;28;20690;-43
2022/08/16 06:57:41;;;;;;;4.35;3.50;;;25.60;55.30;26.20;99986.00;;;;5015962;28;20207;-43
2022/08/16 07:00:12;;;;;;;4.22;3.80;;;25.60;55.10;26.20;99985.00;;;;5021512;28;20790;-43
2022/08/16 07:02:40;;;;;;;3.80;3.35;;;25.60;56.00;26.20;99991.00;;;;5014302;28;20172;-43
2022/08/16 07:05:06;;;;;;;3.58;3.25;;;25.70;55.80;26.20;100002.00;;;;5012293;28;20167;-42
2022/08/16 07:07:33;;;;;;;4.20;3.45;;;25.70;55.60;26.20;99998.00;;;;5014861;28;20198;-42
2022/08/16 07:09:59;;;;;;;4.00;3.60;;;25.60;55.40;26.20;100008.00;;;;5017953;28;20171;-42
2022/08/16 07:12:24;;;;;;;3.88;3.53;;;25.60;55.40;26.20;100003.00;;;;5013581;28;20179;-44
2022/08/16 07:14:50;;;;;;;3.70;3.40;;;25.60;56.20;26.20;100014.00;;;;5009346;28;20183;-42
2022/08/16 07:17:18;;;;;;;3.97;3.58;;;25.50;55.70;26.20;100025.00;;;;5013829;28;20198;-41
2022/08/16 07:19:44;;;;;;;3.75;3.40;;;25.50;55.90;26.20;100022.00;;;;5024447;28;20680;-42
2022/08/16 07:22:09;;;;;;;4.30;3.67;;;25.50;56.00;26.20;100034.00;;;;5022298;28;20170;-43
2022/08/16 07:24:35;;;;;;;3.58;3.28;;;25.60;56.60;26.10;100031.00;;;;5015733;28;20740;-44
2022/08/16 07:27:01;;;;;;;4.43;3.65;;;25.50;56.40;26.10;100023.00;;;;5006119;28;20195;-44
2022/08/16 07:29:27;;;;;;;3.75;3.40;;;25.50;56.40;26.10;100001.00;;;;5023689;28;20676;-42
2022/08/16 07:31:53;;;;;;;3.78;3.40;;;25.50;56.20;26.10;100027.00;;;;5033519;28;20212;-43
2022/08/16 07:34:19;;;;;;;3.70;3.40;;;25.60;56.10;26.10;100028.00;;;;5032135;28;20163;-44
2022/08/16 07:36:45;;;;;;;4.78;3.30;;;25.60;55.90;26.10;100026.00;;;;5016043;28;20203;-42
2022/08/16 07:39:12;;;;;;;3.72;3.40;;;25.60;56.00;26.10;100025.00;;;;5037467;28;20195;-42
2022/08/16 07:41:38;;;;;;;3.83;3.47;;;25.50;56.30;26.10;100020.00;;;;5011115;28;20168;-41
2022/08/16 07:44:04;;;;;;;5.32;3.30;;;25.50;56.20;26.10;100015.00;;;;5014351;28;20187;-40
2022/08/16 07:46:30;;;;;;;3.78;3.47;;;25.50;56.50;26.10;100017.00;;;;5010883;28;20213;-42
2022/08/16 07:48:55;;;;;;;3.67;3.38;;;25.50;56.20;26.10;100013.00;;;;5012769;28;20573;-43
2022/08/16 07:51:21;;;;;;;4.25;3.85;;;25.50;56.30;26.10;100015.00;;;;5016724;28;20258;-42
2022/08/16 07:53:50;;;;;;;3.85;3.45;;;25.50;56.40;26.10;100014.00;;;;5013291;28;20187;-44
2022/08/16 07:56:17;;;;;;;3.65;3.35;;;25.50;56.00;26.10;100025.00;;;;5015812;28;20194;-42
2022/08/16 07:58:44;;;;;;;3.90;3.60;;;25.50;55.70;26.10;100033.00;;;;5027191;28;20208;-40
2022/08/16 08:01:10;;;;;;;4.30;3.90;;;25.50;55.70;26.10;100040.00;;;;5024849;28;20171;-41
2022/08/16 08:03:36;;;;;;;4.40;3.65;;;25.50;55.90;26.20;100037.00;;;;5018028;28;20178;-40
2022/08/16 08:06:02;;;;;;;4.20;3.90;;;25.50;55.70;26.20;100047.00;;;;5017663;28;20716;-40
2022/08/16 08:08:28;;;;;;;4.18;3.80;;;25.50;55.80;26.10;100050.00;;;;5015805;28;20204;-44
2022/08/16 08:10:54;;;;;;;5.43;3.63;;;25.50;55.70;26.10;100051.00;;;;5015345;28;20269;-42
2022/08/16 08:13:21;;;;;;;4.53;3.60;;;25.50;55.70;26.10;100042.00;;;;5022210;28;20193;-42
2022/08/16 08:15:47;;;;;;;5.35;4.13;;;25.50;55.80;26.10;100042.00;;;;5011464;28;20206;-43
2022/08/16 08:18:13;;;;;;;5.70;3.60;;;25.50;56.00;26.10;100035.00;;;;5019093;28;20225;-42
2022/08/16 08:20:43;;;;;;;4.38;3.80;;;25.50;56.00;26.10;100032.00;;;;5022849;28;20187;-42
2022/08/16 08:23:10;;;;;;;3.90;3.60;;;25.50;56.40;26.10;100033.00;;;;5014758;28;20167;-43
2022/08/16 08:25:35;;;;;;;4.20;3.80;;;25.50;56.10;26.10;100037.00;;;;5019689;28;20171;-44
2022/08/16 08:28:02;;;;;;;4.60;3.83;;;25.50;55.90;26.10;100044.00;;;;5026429;28;20788;-42
2022/08/16 08:30:28;;;;;;;4.35;3.72;;;25.50;55.90;26.20;100038.00;;;;5016288;28;20175;-42
2022/08/16 08:32:54;;;;;;;3.85;3.55;;;25.50;56.50;26.20;100039.00;;;;5015364;28;20211;-42
2022/08/16 08:35:20;;;;;;;4.40;3.97;;;25.50;56.10;26.10;100039.00;;;;5025374;28;20183;-42
2022/08/16 08:37:45;;;;;;;3.85;3.55;;;25.50;55.80;26.10;100053.00;;;;5021235;28;20554;-42
2022/08/16 08:40:11;;;;;;;5.13;3.70;;;25.50;56.10;26.10;100057.00;;;;5016699;28;20168;-44
2022/08/16 08:42:39;;;;;;;4.43;4.03;;;25.50;56.30;26.10;100061.00;;;;5044871;28;20653;-44
2022/08/16 08:45:05;;;;;;;4.13;3.70;;;25.40;56.40;26.10;100065.00;;;;5023212;28;20556;-42
2022/08/16 08:47:31;;;;;;;13.02;5.15;;;25.50;56.10;26.10;100049.00;;;;5013880;28;20206;-43
2022/08/16 08:49:57;;;;;;;40.33;8.98;;;25.50;56.00;26.10;100055.00;;;;5030865;28;20178;-43
2022/08/16 08:52:23;;;;;;;48.97;9.38;;;25.50;56.70;26.20;100055.00;;;;5020873;28;20572;-43
2022/08/16 08:54:49;;;;;;;30.15;7.47;;;25.60;56.30;26.20;100069.00;;;;5019689;28;20179;-42
2022/08/16 08:57:17;;;;;;;27.27;6.30;;;25.50;56.30;26.20;100066.00;;;;5030093;28;20195;-42
2022/08/16 08:59:44;;;;;;;16.20;6.03;;;25.60;56.30;26.20;100066.00;;;;5027562;28;20234;-42
2022/08/16 09:02:11;;;;;;;8.75;5.15;;;25.50;56.80;26.20;100069.00;;;;5020773;28;20179;-42
2022/08/16 09:04:37;;;;;;;10.40;4.93;;;25.50;56.80;26.10;100066.00;;;;5029599;28;20175;-42
2022/08/16 09:07:03;;;;;;;11.75;4.65;;;25.50;56.40;26.20;100066.00;;;;5022001;28;20187;-43
2022/08/16 09:09:29;;;;;;;53.20;8.27;;;25.60;56.50;26.20;100084.00;;;;5018562;28;20543;-42
2022/08/16 09:11:56;;;;;;;40.22;7.80;;;25.60;57.90;26.30;100062.00;;;;5029978;28;20186;-43
2022/08/16 09:14:22;;;;;;;36.08;7.93;;;25.60;57.30;26.30;100077.00;;;;5042575;28;20677;-41
2022/08/16 09:16:48;;;;;;;19.25;6.43;;;25.70;57.20;26.30;100077.00;;;;5026040;28;20571;-39
2022/08/16 09:19:14;;;;;;;14.63;5.40;;;25.60;56.60;26.30;100079.00;;;;5018981;28;20203;-40
2022/08/16 09:21:39;;;;;;;12.05;5.07;;;25.70;57.00;26.30;100067.00;;;;5024966;28;20768;-42
2022/08/16 09:24:06;;;;;;;15.85;5.82;;;25.70;56.90;26.30;100073.00;;;;5039921;28;20263;-42
2022/08/16 09:26:31;;;;;;;10.18;5.43;;;25.70;57.40;26.30;100075.00;;;;5019659;28;20178;-43
2022/08/16 09:28:57;;;;;;;7.85;5.10;;;25.70;56.90;26.40;100068.00;;;;5019672;28;20183;-41
2022/08/16 09:31:23;;;;;;;6.25;4.63;;;25.70;56.90;26.40;100068.00;;;;5029408;28;20232;-41
2022/08/16 09:33:49;;;;;;;7.30;4.80;;;25.70;56.90;26.40;100067.00;;;;5018725;28;20179;-42
2022/08/16 09:36:15;;;;;;;7.38;5.00;;;25.70;56.60;26.40;100069.00;;;;5019060;28;20182;-42
2022/08/16 09:38:41;;;;;;;5.60;4.70;;;25.70;56.90;26.40;100066.00;;;;5016207;28;20234;-41
2022/08/16 09:41:09;;;;;;;5.20;4.70;;;25.70;56.90;26.40;100069.00;;;;5015736;28;20576;-43
2022/08/16 09:43:35;;;;;;;5.38;4.80;;;25.70;56.90;26.40;100064.00;;;;5020095;28;20187;-42
2022/08/16 09:46:02;;;;;;;7.80;5.00;;;25.80;56.80;26.40;100066.00;;;;5015657;28;20205;-41
2022/08/16 09:48:28;;;;;;;8.48;5.07;;;25.80;57.30;26.40;100070.00;;;;5020244;28;20230;-40
2022/08/16 09:50:54;;;;;;;5.78;5.28;;;25.70;56.90;26.40;100069.00;;;;5029416;28;20226;-42
2022/08/16 09:53:21;;;;;;;5.72;5.20;;;25.70;57.00;26.40;100080.00;;;;5027993;28;20187;-42
2022/08/16 09:55:50;;;;;;;6.10;5.00;;;25.70;56.90;26.40;100073.00;;;;5025858;28;20426;-41
2022/08/16 09:58:18;;;;;;;8.02;5.40;;;25.70;56.90;26.50;100067.00;;;;5017956;28;20194;-42
2022/08/16 10:00:44;;;;;;;5.85;4.57;;;25.80;57.00;26.50;100063.00;;;;5025716;28;20179;-43
2022/08/16 10:03:09;;;;;;;5.35;4.60;;;25.80;58.50;26.50;100059.00;;;;5029073;28;20320;-40
2022/08/16 10:05:36;;;;;;;6.13;5.28;;;25.90;57.80;26.50;100058.00;;;;5019951;28;20263;-48
2022/08/16 10:08:06;;;;;;;5.28;4.70;;;26.00;57.50;26.60;100065.00;;;;5023606;28;20203;-42
2022/08/16 10:10:32;;;;;;;8.68;4.95;;;26.00;57.40;26.60;100061.00;;;;5021128;28;20179;-42
2022/08/16 10:13:13;;;;;;;5.93;5.40;;;26.00;57.20;26.60;100064.00;;;;5032730;28;20168;-43
2022/08/16 10:15:46;;;;;;;6.40;5.72;;;26.00;57.10;26.60;100067.00;;;;5027917;28;20186;-42
2022/08/16 10:18:12;;;;;;;6.65;5.53;;;26.00;56.80;26.60;100066.00;;;;5023590;28;20286;-40
2022/08/16 10:20:41;;;;;;;6.63;5.85;;;25.90;56.60;26.60;100058.00;;;;5018358;28;20171;-42
2022/08/16 10:23:09;;;;;;;9.73;6.35;;;25.90;56.10;26.60;100049.00;;;;5021275;28;20217;-42
2022/08/16 10:25:41;;;;;;;6.40;5.72;;;25.90;55.80;26.60;100053.00;;;;5036005;28;20175;-41
2022/08/16 10:28:07;;;;;;;7.75;5.53;;;26.00;55.60;26.60;100054.00;;;;5031864;28;20199;-42
2022/08/16 10:30:34;;;;;;;9.13;5.88;;;26.00;55.20;26.60;100055.00;;;;5027872;28;20182;-40
2022/08/16 10:32:59;;;;;;;8.23;5.78;;;26.00;54.90;26.60;100049.00;;;;5020874;28;20170;-41
2022/08/16 10:35:25;;;;;;;7.03;6.32;;;26.10;55.00;26.60;100048.00;;;;5014096;28;20217;-43
2022/08/16 10:37:51;;;;;;;6.95;6.07;;;26.10;55.20;26.70;100052.00;;;;5027272;28;20335;-38
2022/08/16 10:40:17;;;;;;;8.32;6.30;;;26.20;55.30;26.70;100046.00;;;;5021211;28;20262;-41
2022/08/16 10:42:43;;;;;;;7.10;6.40;;;26.20;55.10;26.70;100050.00;;;;5009862;28;20171;-42
2022/08/16 10:45:09;;;;;;;6.75;6.05;;;26.20;55.20;26.80;100053.00;;;;5019676;28;20259;-42
2022/08/16 10:47:35;;;;;;;7.47;5.80;;;26.20;55.00;26.80;100052.00;;;;5017710;28;20199;-42
2022/08/16 10:50:02;;;;;;;9.48;6.80;;;26.40;55.70;26.80;100056.00;;;;5008234;28;20214;-41